createdAt,value
2022-11-26T00:03:19.369Z,101710.75
2022-11-26T00:08:35.438Z,101735.03
2022-11-26T00:13:38.138Z,101746.91
2022-11-26T00:18:41.874Z,101757.94
2022-11-26T00:23:44.984Z,101765.91
2022-11-26T00:29:00.493Z,101774.78
2022-11-26T00:34:03.149Z,101801.00
2022-11-26T00:39:14.774Z,101800.94
2022-11-26T00:44:24.491Z,101805.97
2022-11-26T00:49:29.167Z,101813.06
2022-11-26T00:54:32.063Z,101826.97
2022-11-26T00:59:34.737Z,101837.41
2022-11-26T01:04:37.652Z,101855.75
2022-11-26T01:09:41.787Z,101866.50
2022-11-26T01:14:44.531Z,101876.91
2022-11-26T01:19:47.642Z,101900.06
2022-11-26T01:24:50.713Z,101885.25
2022-11-26T01:29:53.361Z,101905.34
2022-11-26T01:34:56.024Z,101869.50
2022-11-26T01:39:58.728Z,101871.19
2022-11-26T01:45:01.429Z,101935.91
2022-11-26T01:50:33.655Z,101945.09
2022-11-26T01:55:58.341Z,101949.06
2022-11-26T02:01:01.315Z,101966.31
2022-11-26T02:06:11.352Z,101985.69
2022-11-26T02:11:20.938Z,101992.53
2022-11-26T02:16:59.482Z,102004.09
2022-11-26T02:22:43.571Z,102027.75
2022-11-26T02:28:38.874Z,101996.00
2022-11-26T02:34:05.142Z,102047.63
2022-11-26T02:39:15.001Z,102067.38
2022-11-26T02:44:20.932Z,102072.69
2022-11-26T02:49:23.666Z,102093.16
2022-11-26T02:54:27.091Z,102083.97
2022-11-26T02:59:30.248Z,102100.72
2022-11-26T03:04:39.910Z,102125.09
2022-11-26T03:09:54.882Z,102058.91
2022-11-26T03:14:57.902Z,102139.53
2022-11-26T03:20:00.686Z,102151.53
2022-11-26T03:25:04.519Z,102162.22
2022-11-26T03:30:08.032Z,102167.34
2022-11-26T03:35:10.947Z,102191.91
2022-11-26T03:40:14.103Z,102146.22
2022-11-26T03:45:16.806Z,102197.47
2022-11-26T03:50:19.548Z,102236.22
2022-11-26T03:55:22.902Z,102221.31
2022-11-26T04:00:25.703Z,102220.91
2022-11-26T04:05:28.572Z,102255.44
2022-11-26T04:10:31.402Z,102254.00
2022-11-26T04:15:34.797Z,102268.56
2022-11-26T04:20:37.530Z,102276.63
2022-11-26T04:25:40.389Z,102286.00
2022-11-26T04:30:43.696Z,102302.69
2022-11-26T04:35:46.573Z,102291.91
2022-11-26T04:40:49.198Z,102316.75
2022-11-26T04:45:52.009Z,102321.78
2022-11-26T04:50:54.707Z,102348.41
2022-11-26T04:55:57.449Z,102356.00
2022-11-26T05:01:00.175Z,102348.81
2022-11-26T05:06:03.659Z,102366.53
2022-11-26T05:11:06.769Z,102390.75
2022-11-26T05:16:09.494Z,102386.94
2022-11-26T05:21:12.192Z,102377.66
2022-11-26T05:26:14.843Z,102413.47
2022-11-26T05:31:17.697Z,102421.88
2022-11-26T05:36:20.624Z,102427.97
2022-11-26T05:41:23.370Z,102455.88
2022-11-26T05:46:27.102Z,102449.06
2022-11-26T05:51:29.888Z,102459.03
2022-11-26T05:56:32.692Z,102463.59
2022-11-26T06:01:35.483Z,102476.34
2022-11-26T06:06:38.152Z,102487.34
2022-11-26T06:11:40.889Z,102501.50
2022-11-26T06:16:43.717Z,102490.41
2022-11-26T06:21:47.905Z,102524.03
2022-11-26T06:26:50.622Z,102519.66
2022-11-26T06:31:53.501Z,102548.28
2022-11-26T06:36:56.358Z,102554.28
2022-11-26T06:41:59.102Z,102563.22
2022-11-26T06:47:01.813Z,102581.28
2022-11-26T06:52:04.884Z,102565.34
2022-11-26T06:57:07.699Z,102568.50
2022-11-26T07:02:11.078Z,102581.38
2022-11-26T07:07:13.941Z,102607.75
2022-11-26T07:12:16.758Z,102620.59
2022-11-26T07:17:19.444Z,102634.41
2022-11-26T07:22:22.253Z,102654.44
2022-11-26T07:27:24.875Z,102657.97
2022-11-26T07:32:27.719Z,102662.25
2022-11-26T07:37:30.589Z,102663.66
2022-11-26T07:42:33.987Z,102687.97
2022-11-26T07:47:36.864Z,102675.00
2022-11-26T07:52:39.667Z,102681.78
2022-11-26T07:57:42.292Z,102667.91
2022-11-26T08:02:44.988Z,102711.88
2022-11-26T08:07:47.738Z,102723.41
2022-11-26T08:12:50.496Z,102739.00
2022-11-26T08:17:57.444Z,102732.06
2022-11-26T08:23:00.164Z,102748.31
2022-11-26T08:28:02.904Z,102734.50
2022-11-26T08:33:05.615Z,102762.59
2022-11-26T08:38:08.428Z,102780.53
2022-11-26T08:43:11.061Z,102799.13
2022-11-26T08:48:13.812Z,102820.59
2022-11-26T08:53:16.644Z,102810.91
2022-11-26T08:58:19.579Z,102819.75
2022-11-26T09:03:22.321Z,102838.88
2022-11-26T09:08:28.167Z,102856.59
2022-11-26T09:13:30.803Z,102859.75
2022-11-26T09:18:33.526Z,102885.25
2022-11-26T09:23:36.227Z,102886.47
2022-11-26T09:28:39.867Z,102919.91
2022-11-26T09:33:42.920Z,102915.25
2022-11-26T09:38:45.952Z,102929.81
2022-11-26T09:44:16.314Z,102926.78
2022-11-26T09:49:19.190Z,102919.88
2022-11-26T09:54:24.290Z,102935.59
2022-11-26T09:59:27.348Z,102960.78
2022-11-26T10:04:33.467Z,102951.56
2022-11-26T10:10:00.314Z,102979.47
2022-11-26T10:15:17.899Z,102980.97
2022-11-26T10:20:34.702Z,102999.72
2022-11-26T10:25:45.580Z,103039.22
2022-11-26T10:31:01.987Z,103054.56
2022-11-26T10:36:07.936Z,103050.47
2022-11-26T10:41:10.825Z,103064.91
2022-11-26T10:46:34.819Z,103080.78
2022-11-26T10:51:38.071Z,103053.03
2022-11-26T10:56:47.769Z,103088.94
2022-11-26T11:01:53.052Z,103111.25
2022-11-26T11:06:59.560Z,103121.94
2022-11-26T11:12:11.376Z,103123.59
2022-11-26T11:17:41.024Z,103139.69
2022-11-26T11:22:47.418Z,103150.72
2022-11-26T11:27:50.526Z,103139.97
2022-11-26T11:32:57.551Z,103159.75
2022-11-26T11:38:00.309Z,103191.56
2022-11-26T11:43:05.759Z,103204.81
2022-11-26T11:48:17.973Z,103207.19
2022-11-26T11:53:33.315Z,103221.88
2022-11-26T11:58:51.960Z,103213.94
2022-11-26T12:04:27.055Z,103231.53
2022-11-26T12:09:47.156Z,103209.22
2022-11-26T12:15:06.627Z,103258.97
2022-11-26T12:20:32.712Z,103253.16
2022-11-26T12:25:37.546Z,103267.25
2022-11-26T12:30:48.458Z,103283.91
2022-11-26T12:36:12.485Z,103270.56
2022-11-26T12:41:22.839Z,103296.00
2022-11-26T12:46:39.721Z,103312.03
2022-11-26T12:51:50.738Z,103306.31
2022-11-26T12:57:21.472Z,103315.84
2022-11-26T13:02:40.981Z,103332.66
2022-11-26T13:08:13.494Z,103340.66
2022-11-26T13:13:28.365Z,103339.97
2022-11-26T13:18:36.087Z,103359.59
2022-11-26T13:23:53.531Z,103362.19
2022-11-26T13:29:17.641Z,103368.84
2022-11-26T13:34:52.848Z,103387.91
2022-11-26T13:40:21.723Z,103407.41
2022-11-26T13:45:59.902Z,103412.94
2022-11-26T13:51:05.382Z,103421.44
2022-11-26T13:56:09.136Z,103405.72
2022-11-26T14:01:31.891Z,103429.16
2022-11-26T14:06:35.317Z,103426.38
2022-11-26T14:11:47.040Z,103418.94
2022-11-26T14:17:01.833Z,103427.50
2022-11-26T14:22:04.791Z,103426.88
2022-11-26T14:27:07.711Z,103439.00
2022-11-26T14:32:18.650Z,103439.47
2022-11-26T14:37:26.774Z,103450.31
2022-11-26T14:42:30.090Z,103464.66
2022-11-26T14:47:33.465Z,103453.50
2022-11-26T14:52:39.031Z,103480.47
2022-11-26T14:57:46.010Z,103482.28
2022-11-26T15:02:48.851Z,103483.19
2022-11-26T15:08:03.323Z,103481.16
2022-11-26T15:13:17.353Z,103488.53
2022-11-26T15:18:23.160Z,103510.56
2022-11-26T15:23:30.471Z,103504.50
2022-11-26T15:28:38.633Z,103486.91
2022-11-26T15:33:42.359Z,103514.81
2022-11-26T15:39:07.560Z,103517.75
2022-11-26T15:44:26.903Z,103517.94
2022-11-26T15:49:33.976Z,103500.72
2022-11-26T15:55:04.495Z,103530.81
2022-11-26T16:00:08.724Z,103535.06
2022-11-26T16:05:31.649Z,103524.78
2022-11-26T16:10:35.929Z,103519.72
2022-11-26T16:15:47.008Z,103554.94
2022-11-26T16:20:49.974Z,103552.91
2022-11-26T16:26:11.400Z,103558.56
2022-11-26T16:31:15.526Z,103570.75
2022-11-26T16:36:19.515Z,103578.38
2022-11-26T16:44:51.855Z,103552.97
2022-11-26T16:49:55.227Z,103582.03
2022-11-26T16:54:57.900Z,103511.69
2022-11-26T17:00:05.308Z,103590.97
2022-11-26T17:05:08.431Z,103598.69
2022-11-26T17:10:15.455Z,103596.28
2022-11-26T17:15:18.649Z,103592.16
2022-11-26T17:20:25.849Z,103612.28
2022-11-26T17:25:28.515Z,103614.13
2022-11-26T17:30:31.289Z,103621.09
2022-11-26T17:35:34.134Z,103592.66
2022-11-26T17:40:36.851Z,103620.72
2022-11-26T17:45:39.965Z,103627.19
2022-11-26T17:50:43.129Z,103636.16
2022-11-26T17:55:45.892Z,103621.31
2022-11-26T18:00:49.196Z,103640.41
2022-11-26T18:05:51.866Z,103649.06
2022-11-26T18:10:54.525Z,103651.50
2022-11-26T18:16:00.853Z,103672.41
2022-11-26T18:21:03.612Z,103652.81
2022-11-26T18:26:06.417Z,103674.84
2022-11-26T18:31:09.097Z,103690.59
2022-11-26T18:36:12.360Z,103699.22
2022-11-26T18:41:15.187Z,103680.00
2022-11-26T18:46:18.445Z,103713.06
2022-11-26T18:51:21.255Z,103709.94
2022-11-26T18:56:24.646Z,103722.78
2022-11-26T19:01:29.395Z,103657.31
2022-11-26T19:06:33.812Z,103736.06
2022-11-26T19:11:36.511Z,103744.31
2022-11-26T19:16:40.027Z,103754.56
2022-11-26T19:21:43.174Z,103769.41
2022-11-26T19:26:45.775Z,103773.25
2022-11-26T19:31:48.485Z,103772.97
2022-11-26T19:36:53.627Z,103774.22
2022-11-26T19:41:56.337Z,103784.53
2022-11-26T19:46:59.020Z,103783.25
2022-11-26T19:52:01.633Z,103788.41
2022-11-26T19:57:04.498Z,103792.59
2022-11-26T20:02:08.899Z,103775.91
2022-11-26T20:07:11.720Z,103769.66
2022-11-26T20:12:14.296Z,103772.59
2022-11-26T20:17:17.030Z,103780.31
2022-11-26T20:22:19.782Z,103789.06
2022-11-26T20:27:22.446Z,103800.63
2022-11-26T20:32:25.239Z,103802.09
2022-11-26T20:37:27.940Z,103809.78
2022-11-26T20:42:30.701Z,103804.66
2022-11-26T20:47:33.338Z,103816.03
2022-11-26T20:52:35.949Z,103820.63
2022-11-26T20:57:38.791Z,103822.81
2022-11-26T21:02:41.508Z,103826.69
2022-11-26T21:07:44.360Z,103839.94
2022-11-26T21:12:47.145Z,103777.34
2022-11-26T21:17:49.923Z,103831.13
2022-11-26T21:22:52.850Z,103842.16
2022-11-26T21:27:55.935Z,103856.28
2022-11-26T21:32:58.750Z,103858.13
2022-11-26T21:38:01.585Z,103846.72
2022-11-26T21:43:04.246Z,103846.00
2022-11-26T21:48:07.024Z,103865.47
2022-11-26T21:53:09.681Z,103873.56
2022-11-26T21:58:12.464Z,103874.66
2022-11-26T22:03:15.147Z,103883.47
2022-11-26T22:08:17.762Z,103886.03
2022-11-26T22:13:21.056Z,103893.03
2022-11-26T22:18:23.756Z,103887.16
2022-11-26T22:23:27.531Z,103896.97
2022-11-26T22:28:30.568Z,103909.28
2022-11-26T22:33:33.244Z,103908.59
2022-11-26T22:38:37.855Z,103911.69
2022-11-26T22:43:41.230Z,103923.28
2022-11-26T22:48:44.400Z,103871.44
2022-11-26T22:53:52.430Z,103927.44
2022-11-26T22:58:55.310Z,103929.81
2022-11-26T23:03:59.481Z,103941.78
2022-11-26T23:09:03.832Z,103939.06
2022-11-26T23:14:07.772Z,103953.22
2022-11-26T23:19:13.061Z,103948.78
2022-11-26T23:24:16.868Z,103949.00
2022-11-26T23:29:19.680Z,103949.78
2022-11-26T23:34:22.671Z,103969.44
2022-11-26T23:39:25.370Z,103978.59
2022-11-26T23:44:28.047Z,103973.09
2022-11-26T23:49:30.752Z,103975.31
2022-11-26T23:54:33.358Z,103984.53
2022-11-26T23:59:36.017Z,103974.97
